sensor_id;sensor_type;location;lat;lon;timestamp;temperature;humidity
51007;DHT22;37034;47.886;-3.904;2022-11-14T00:00:10;18.30;96.30
51007;DHT22;37034;47.886;-3.904;2022-11-14T00:02:37;18.30;96.40
51007;DHT22;37034;47.886;-3.904;2022-11-14T00:05:03;18.30;96.40
51007;DHT22;37034;47.886;-3.904;2022-11-14T00:07:30;18.30;96.40
51007;DHT22;37034;47.886;-3.904;2022-11-14T00:09:56;18.30;96.40
51007;DHT22;37034;47.886;-3.904;2022-11-14T00:12:22;18.40;96.40
51007;DHT22;37034;47.886;-3.904;2022-11-14T00:14:48;18.40;96.40
51007;DHT22;37034;47.886;-3.904;2022-11-14T00:17:13;18.30;96.40
51007;DHT22;37034;47.886;-3.904;2022-11-14T00:19:39;18.40;96.40
51007;DHT22;37034;47.886;-3.904;2022-11-14T00:22:05;18.30;96.40
51007;DHT22;37034;47.886;-3.904;2022-11-14T00:24:31;18.30;96.40
51007;DHT22;37034;47.886;-3.904;2022-11-14T00:26:56;18.40;96.50
51007;DHT22;37034;47.886;-3.904;2022-11-14T00:29:22;18.30;96.40
51007;DHT22;37034;47.886;-3.904;2022-11-14T00:31:48;18.40;96.40
51007;DHT22;37034;47.886;-3.904;2022-11-14T00:34:14;18.40;96.40
51007;DHT22;37034;47.886;-3.904;2022-11-14T00:36:40;18.40;96.40
51007;DHT22;37034;47.886;-3.904;2022-11-14T00:39:05;18.40;96.40
51007;DHT22;37034;47.886;-3.904;2022-11-14T00:41:31;18.30;96.50
51007;DHT22;37034;47.886;-3.904;2022-11-14T00:43:57;18.30;96.50
51007;DHT22;37034;47.886;-3.904;2022-11-14T00:46:22;18.40;96.40
51007;DHT22;37034;47.886;-3.904;2022-11-14T00:48:48;18.30;96.50
51007;DHT22;37034;47.886;-3.904;2022-11-14T00:51:14;18.40;96.40
51007;DHT22;37034;47.886;-3.904;2022-11-14T00:53:39;18.30;96.30
51007;DHT22;37034;47.886;-3.904;2022-11-14T00:56:05;18.30;96.50
51007;DHT22;37034;47.886;-3.904;2022-11-14T00:58:31;18.30;96.50
51007;DHT22;37034;47.886;-3.904;2022-11-14T01:00:57;18.30;96.50
51007;DHT22;37034;47.886;-3.904;2022-11-14T01:03:22;18.30;96.50
51007;DHT22;37034;47.886;-3.904;2022-11-14T01:05:50;18.30;96.50
51007;DHT22;37034;47.886;-3.904;2022-11-14T01:08:17;18.30;96.50
51007;DHT22;37034;47.886;-3.904;2022-11-14T01:10:48;18.30;96.50
51007;DHT22;37034;47.886;-3.904;2022-11-14T01:13:17;18.30;96.50
51007;DHT22;37034;47.886;-3.904;2022-11-14T01:15:46;18.30;96.60
51007;DHT22;37034;47.886;-3.904;2022-11-14T01:18:15;18.30;96.50
51007;DHT22;37034;47.886;-3.904;2022-11-14T01:20:43;18.30;96.50
51007;DHT22;37034;47.886;-3.904;2022-11-14T01:23:10;18.30;96.50
51007;DHT22;37034;47.886;-3.904;2022-11-14T01:25:37;18.30;96.70
51007;DHT22;37034;47.886;-3.904;2022-11-14T01:28:12;18.30;96.60
51007;DHT22;37034;47.886;-3.904;2022-11-14T01:30:38;18.30;96.60
51007;DHT22;37034;47.886;-3.904;2022-11-14T01:33:04;18.30;96.60
51007;DHT22;37034;47.886;-3.904;2022-11-14T01:35:34;18.30;96.60
51007;DHT22;37034;47.886;-3.904;2022-11-14T01:38:00;18.30;96.50
51007;DHT22;37034;47.886;-3.904;2022-11-14T01:40:27;18.30;96.50
51007;DHT22;37034;47.886;-3.904;2022-11-14T01:43:18;18.30;96.50
51007;DHT22;37034;47.886;-3.904;2022-11-14T01:46:04;18.30;96.60
51007;DHT22;37034;47.886;-3.904;2022-11-14T01:53:47;18.20;96.50
51007;DHT22;37034;47.886;-3.904;2022-11-14T01:56:16;18.20;96.60
51007;DHT22;37034;47.886;-3.904;2022-11-14T01:58:45;18.20;96.60
51007;DHT22;37034;47.886;-3.904;2022-11-14T02:01:13;18.20;96.60
51007;DHT22;37034;47.886;-3.904;2022-11-14T02:03:41;18.20;96.60
51007;DHT22;37034;47.886;-3.904;2022-11-14T02:06:11;18.20;96.60
51007;DHT22;37034;47.886;-3.904;2022-11-14T02:08:38;18.20;96.60
51007;DHT22;37034;47.886;-3.904;2022-11-14T02:11:05;18.20;96.60
51007;DHT22;37034;47.886;-3.904;2022-11-14T02:13:30;18.20;96.70
51007;DHT22;37034;47.886;-3.904;2022-11-14T02:15:56;18.20;96.70
51007;DHT22;37034;47.886;-3.904;2022-11-14T02:18:22;18.20;96.70
51007;DHT22;37034;47.886;-3.904;2022-11-14T02:20:48;18.20;96.70
51007;DHT22;37034;47.886;-3.904;2022-11-14T02:23:13;18.20;96.70
51007;DHT22;37034;47.886;-3.904;2022-11-14T02:25:41;18.20;96.70
51007;DHT22;37034;47.886;-3.904;2022-11-14T02:28:08;18.20;96.70
51007;DHT22;37034;47.886;-3.904;2022-11-14T02:30:34;18.20;96.70
51007;DHT22;37034;47.886;-3.904;2022-11-14T02:32:59;18.30;96.80
51007;DHT22;37034;47.886;-3.904;2022-11-14T02:35:25;18.30;96.70
51007;DHT22;37034;47.886;-3.904;2022-11-14T02:37:51;18.30;96.70
51007;DHT22;37034;47.886;-3.904;2022-11-14T02:40:16;18.30;96.90
51007;DHT22;37034;47.886;-3.904;2022-11-14T02:42:42;18.30;96.70
51007;DHT22;37034;47.886;-3.904;2022-11-14T02:45:09;18.30;96.70
51007;DHT22;37034;47.886;-3.904;2022-11-14T02:47:35;18.30;96.70
51007;DHT22;37034;47.886;-3.904;2022-11-14T02:50:01;18.30;96.70
51007;DHT22;37034;47.886;-3.904;2022-11-14T02:52:27;18.30;96.80
51007;DHT22;37034;47.886;-3.904;2022-11-14T02:54:52;18.30;96.80
51007;DHT22;37034;47.886;-3.904;2022-11-14T02:57:18;18.30;96.80
51007;DHT22;37034;47.886;-3.904;2022-11-14T02:59:44;18.30;96.80
51007;DHT22;37034;47.886;-3.904;2022-11-14T03:02:09;18.30;96.80
51007;DHT22;37034;47.886;-3.904;2022-11-14T03:04:35;18.30;96.80
51007;DHT22;37034;47.886;-3.904;2022-11-14T03:07:01;18.30;96.80
51007;DHT22;37034;47.886;-3.904;2022-11-14T03:09:26;18.30;96.90
51007;DHT22;37034;47.886;-3.904;2022-11-14T03:11:52;18.30;96.90
51007;DHT22;37034;47.886;-3.904;2022-11-14T03:14:18;18.30;96.90
51007;DHT22;37034;47.886;-3.904;2022-11-14T03:16:43;18.30;96.80
51007;DHT22;37034;47.886;-3.904;2022-11-14T03:19:09;18.30;96.80
51007;DHT22;37034;47.886;-3.904;2022-11-14T03:21:35;18.30;96.90
51007;DHT22;37034;47.886;-3.904;2022-11-14T03:24:00;18.30;96.90
51007;DHT22;37034;47.886;-3.904;2022-11-14T03:26:26;18.30;97.20
51007;DHT22;37034;47.886;-3.904;2022-11-14T03:28:52;18.30;96.90
51007;DHT22;37034;47.886;-3.904;2022-11-14T03:31:20;18.30;96.90
51007;DHT22;37034;47.886;-3.904;2022-11-14T03:33:45;18.30;96.90
51007;DHT22;37034;47.886;-3.904;2022-11-14T03:36:11;18.30;97.00
51007;DHT22;37034;47.886;-3.904;2022-11-14T03:38:37;18.30;97.00
51007;DHT22;37034;47.886;-3.904;2022-11-14T03:41:03;18.30;97.00
51007;DHT22;37034;47.886;-3.904;2022-11-14T03:43:31;18.20;97.00
51007;DHT22;37034;47.886;-3.904;2022-11-14T03:45:58;18.20;97.10
51007;DHT22;37034;47.886;-3.904;2022-11-14T03:48:25;18.20;97.00
51007;DHT22;37034;47.886;-3.904;2022-11-14T03:50:51;18.30;97.10
51007;DHT22;37034;47.886;-3.904;2022-11-14T03:53:16;18.20;97.10
51007;DHT22;37034;47.886;-3.904;2022-11-14T03:55:42;18.30;97.10
51007;DHT22;37034;47.886;-3.904;2022-11-14T03:58:08;18.30;97.10
51007;DHT22;37034;47.886;-3.904;2022-11-14T04:00:34;18.30;97.00
51007;DHT22;37034;47.886;-3.904;2022-11-14T04:03:00;18.30;97.00
51007;DHT22;37034;47.886;-3.904;2022-11-14T04:05:26;18.30;97.00
51007;DHT22;37034;47.886;-3.904;2022-11-14T04:07:51;18.30;97.00
51007;DHT22;37034;47.886;-3.904;2022-11-14T04:10:17;18.30;97.00
51007;DHT22;37034;47.886;-3.904;2022-11-14T04:12:51;18.30;97.00
51007;DHT22;37034;47.886;-3.904;2022-11-14T04:15:17;18.30;97.00
51007;DHT22;37034;47.886;-3.904;2022-11-14T04:17:44;18.30;96.90
51007;DHT22;37034;47.886;-3.904;2022-11-14T04:20:11;18.30;97.00
51007;DHT22;37034;47.886;-3.904;2022-11-14T04:22:37;18.30;97.00
51007;DHT22;37034;47.886;-3.904;2022-11-14T04:25:03;18.30;96.90
51007;DHT22;37034;47.886;-3.904;2022-11-14T04:27:29;18.20;96.90
51007;DHT22;37034;47.886;-3.904;2022-11-14T04:29:54;18.30;96.90
51007;DHT22;37034;47.886;-3.904;2022-11-14T04:32:20;18.20;96.90
51007;DHT22;37034;47.886;-3.904;2022-11-14T04:34:46;18.20;97.00
51007;DHT22;37034;47.886;-3.904;2022-11-14T04:37:12;18.20;97.00
51007;DHT22;37034;47.886;-3.904;2022-11-14T04:39:37;18.20;97.10
51007;DHT22;37034;47.886;-3.904;2022-11-14T04:42:03;18.10;97.00
51007;DHT22;37034;47.886;-3.904;2022-11-14T04:44:29;18.10;97.10
51007;DHT22;37034;47.886;-3.904;2022-11-14T04:46:54;18.10;97.20
51007;DHT22;37034;47.886;-3.904;2022-11-14T04:49:20;18.10;97.20
51007;DHT22;37034;47.886;-3.904;2022-11-14T04:51:46;18.00;97.10
51007;DHT22;37034;47.886;-3.904;2022-11-14T04:54:12;18.00;97.10
51007;DHT22;37034;47.886;-3.904;2022-11-14T04:56:37;18.00;97.10
51007;DHT22;37034;47.886;-3.904;2022-11-14T04:59:03;18.00;97.20
51007;DHT22;37034;47.886;-3.904;2022-11-14T05:01:29;17.90;97.20
51007;DHT22;37034;47.886;-3.904;2022-11-14T05:03:57;18.00;97.30
51007;DHT22;37034;47.886;-3.904;2022-11-14T05:06:22;17.90;97.30
51007;DHT22;37034;47.886;-3.904;2022-11-14T05:08:48;17.90;97.30
51007;DHT22;37034;47.886;-3.904;2022-11-14T05:11:15;17.90;97.30
51007;DHT22;37034;47.886;-3.904;2022-11-14T05:13:41;17.90;97.20
51007;DHT22;37034;47.886;-3.904;2022-11-14T05:16:06;17.90;97.50
51007;DHT22;37034;47.886;-3.904;2022-11-14T05:18:32;17.90;97.10
51007;DHT22;37034;47.886;-3.904;2022-11-14T05:20:59;17.90;97.10
51007;DHT22;37034;47.886;-3.904;2022-11-14T05:23:25;17.80;97.10
51007;DHT22;37034;47.886;-3.904;2022-11-14T05:26:10;17.80;97.10
51007;DHT22;37034;47.886;-3.904;2022-11-14T05:28:36;17.80;97.30
51007;DHT22;37034;47.886;-3.904;2022-11-14T05:31:04;17.70;97.20
51007;DHT22;37034;47.886;-3.904;2022-11-14T05:33:30;17.80;97.30
51007;DHT22;37034;47.886;-3.904;2022-11-14T05:36:04;17.80;97.30
51007;DHT22;37034;47.886;-3.904;2022-11-14T05:38:30;17.80;97.30
51007;DHT22;37034;47.886;-3.904;2022-11-14T05:40:56;17.80;97.30
51007;DHT22;37034;47.886;-3.904;2022-11-14T05:43:21;17.80;97.40
51007;DHT22;37034;47.886;-3.904;2022-11-14T05:45:47;17.80;97.30
51007;DHT22;37034;47.886;-3.904;2022-11-14T05:48:13;17.80;97.20
51007;DHT22;37034;47.886;-3.904;2022-11-14T05:50:38;17.80;97.20
51007;DHT22;37034;47.886;-3.904;2022-11-14T05:53:04;17.80;97.00
51007;DHT22;37034;47.886;-3.904;2022-11-14T05:55:30;17.70;96.90
51007;DHT22;37034;47.886;-3.904;2022-11-14T05:57:59;17.50;97.00
51007;DHT22;37034;47.886;-3.904;2022-11-14T06:00:26;17.30;96.80
51007;DHT22;37034;47.886;-3.904;2022-11-14T06:02:53;16.90;97.00
51007;DHT22;37034;47.886;-3.904;2022-11-14T06:05:19;16.60;97.20
51007;DHT22;37034;47.886;-3.904;2022-11-14T06:07:45;16.50;97.20
51007;DHT22;37034;47.886;-3.904;2022-11-14T06:10:11;16.50;97.10
51007;DHT22;37034;47.886;-3.904;2022-11-14T06:12:38;16.10;97.40
51007;DHT22;37034;47.886;-3.904;2022-11-14T06:15:04;16.10;97.50
51007;DHT22;37034;47.886;-3.904;2022-11-14T06:17:30;16.00;97.60
51007;DHT22;37034;47.886;-3.904;2022-11-14T06:19:55;15.90;97.60
51007;DHT22;37034;47.886;-3.904;2022-11-14T06:22:21;15.90;97.40
51007;DHT22;37034;47.886;-3.904;2022-11-14T06:24:47;15.90;97.50
51007;DHT22;37034;47.886;-3.904;2022-11-14T06:27:13;15.70;97.40
51007;DHT22;37034;47.886;-3.904;2022-11-14T06:29:38;15.70;97.30
51007;DHT22;37034;47.886;-3.904;2022-11-14T06:32:04;15.60;97.50
51007;DHT22;37034;47.886;-3.904;2022-11-14T06:34:30;15.50;97.60
51007;DHT22;37034;47.886;-3.904;2022-11-14T06:36:55;15.50;97.60
51007;DHT22;37034;47.886;-3.904;2022-11-14T06:39:21;15.60;97.50
51007;DHT22;37034;47.886;-3.904;2022-11-14T06:41:46;15.60;97.50
51007;DHT22;37034;47.886;-3.904;2022-11-14T06:44:12;15.50;97.50
51007;DHT22;37034;47.886;-3.904;2022-11-14T06:46:39;15.50;97.30
51007;DHT22;37034;47.886;-3.904;2022-11-14T06:49:05;15.50;97.40
51007;DHT22;37034;47.886;-3.904;2022-11-14T06:51:31;15.40;97.50
51007;DHT22;37034;47.886;-3.904;2022-11-14T06:53:57;15.40;97.50
51007;DHT22;37034;47.886;-3.904;2022-11-14T06:56:23;15.40;97.40
51007;DHT22;37034;47.886;-3.904;2022-11-14T06:58:49;15.30;97.40
51007;DHT22;37034;47.886;-3.904;2022-11-14T07:01:19;15.40;97.50
51007;DHT22;37034;47.886;-3.904;2022-11-14T07:03:45;15.40;97.40
51007;DHT22;37034;47.886;-3.904;2022-11-14T07:06:13;15.50;97.30
51007;DHT22;37034;47.886;-3.904;2022-11-14T07:08:40;15.50;97.10
51007;DHT22;37034;47.886;-3.904;2022-11-14T07:11:16;15.50;97.30
51007;DHT22;37034;47.886;-3.904;2022-11-14T07:16:20;15.50;97.10
51007;DHT22;37034;47.886;-3.904;2022-11-14T07:18:47;15.50;97.00
51007;DHT22;37034;47.886;-3.904;2022-11-14T07:21:13;15.50;97.00
51007;DHT22;37034;47.886;-3.904;2022-11-14T07:23:39;15.50;97.00
51007;DHT22;37034;47.886;-3.904;2022-11-14T07:26:07;15.50;96.90
51007;DHT22;37034;47.886;-3.904;2022-11-14T07:28:39;15.50;97.00
51007;DHT22;37034;47.886;-3.904;2022-11-14T07:31:06;15.50;97.00
51007;DHT22;37034;47.886;-3.904;2022-11-14T07:33:33;15.50;96.90
51007;DHT22;37034;47.886;-3.904;2022-11-14T07:35:58;15.50;96.90
51007;DHT22;37034;47.886;-3.904;2022-11-14T07:38:24;15.50;97.00
51007;DHT22;37034;47.886;-3.904;2022-11-14T07:40:58;15.50;96.90
51007;DHT22;37034;47.886;-3.904;2022-11-14T07:43:24;15.50;97.10
51007;DHT22;37034;47.886;-3.904;2022-11-14T07:45:50;15.50;96.90
51007;DHT22;37034;47.886;-3.904;2022-11-14T07:48:16;15.50;96.80
51007;DHT22;37034;47.886;-3.904;2022-11-14T07:50:42;15.50;96.90
51007;DHT22;37034;47.886;-3.904;2022-11-14T07:53:08;15.60;97.00
51007;DHT22;37034;47.886;-3.904;2022-11-14T07:55:35;15.60;97.10
51007;DHT22;37034;47.886;-3.904;2022-11-14T07:58:01;15.70;96.90
51007;DHT22;37034;47.886;-3.904;2022-11-14T08:00:27;15.70;96.90
51007;DHT22;37034;47.886;-3.904;2022-11-14T08:02:53;15.70;96.90
51007;DHT22;37034;47.886;-3.904;2022-11-14T08:05:19;15.70;96.90
51007;DHT22;37034;47.886;-3.904;2022-11-14T08:07:45;15.80;96.80
51007;DHT22;37034;47.886;-3.904;2022-11-14T08:10:11;15.80;96.90
51007;DHT22;37034;47.886;-3.904;2022-11-14T08:12:39;15.80;96.90
51007;DHT22;37034;47.886;-3.904;2022-11-14T08:15:07;15.80;96.80
51007;DHT22;37034;47.886;-3.904;2022-11-14T08:17:33;15.80;96.80
51007;DHT22;37034;47.886;-3.904;2022-11-14T08:19:59;15.90;96.90
51007;DHT22;37034;47.886;-3.904;2022-11-14T08:22:25;15.80;96.70
51007;DHT22;37034;47.886;-3.904;2022-11-14T08:24:51;15.90;96.60
51007;DHT22;37034;47.886;-3.904;2022-11-14T08:27:16;15.90;96.70
51007;DHT22;37034;47.886;-3.904;2022-11-14T08:29:42;15.90;96.70
51007;DHT22;37034;47.886;-3.904;2022-11-14T08:32:09;15.90;96.60
51007;DHT22;37034;47.886;-3.904;2022-11-14T08:34:34;15.90;96.60
51007;DHT22;37034;47.886;-3.904;2022-11-14T08:37:01;15.90;96.50
51007;DHT22;37034;47.886;-3.904;2022-11-14T08:39:28;15.80;96.40
51007;DHT22;37034;47.886;-3.904;2022-11-14T08:41:53;15.70;96.30
51007;DHT22;37034;47.886;-3.904;2022-11-14T08:44:19;15.60;96.30
51007;DHT22;37034;47.886;-3.904;2022-11-14T08:46:45;15.60;96.40
51007;DHT22;37034;47.886;-3.904;2022-11-14T08:49:10;15.50;96.50
51007;DHT22;37034;47.886;-3.904;2022-11-14T08:51:36;15.60;96.80
51007;DHT22;37034;47.886;-3.904;2022-11-14T08:54:02;15.60;96.60
51007;DHT22;37034;47.886;-3.904;2022-11-14T08:56:28;15.70;96.60
51007;DHT22;37034;47.886;-3.904;2022-11-14T08:58:53;15.70;96.30
51007;DHT22;37034;47.886;-3.904;2022-11-14T09:01:19;15.70;96.00
51007;DHT22;37034;47.886;-3.904;2022-11-14T09:03:45;15.60;96.30
51007;DHT22;37034;47.886;-3.904;2022-11-14T09:06:10;15.60;96.30
51007;DHT22;37034;47.886;-3.904;2022-11-14T09:08:36;15.60;96.10
51007;DHT22;37034;47.886;-3.904;2022-11-14T09:11:03;15.70;96.40
51007;DHT22;37034;47.886;-3.904;2022-11-14T09:13:32;15.70;96.40
51007;DHT22;37034;47.886;-3.904;2022-11-14T09:15:58;15.70;96.20
51007;DHT22;37034;47.886;-3.904;2022-11-14T09:18:24;15.80;96.20
51007;DHT22;37034;47.886;-3.904;2022-11-14T09:20:49;15.90;96.40
51007;DHT22;37034;47.886;-3.904;2022-11-14T09:23:15;15.90;96.10
51007;DHT22;37034;47.886;-3.904;2022-11-14T09:25:41;15.90;95.90
51007;DHT22;37034;47.886;-3.904;2022-11-14T09:28:07;15.90;95.80
51007;DHT22;37034;47.886;-3.904;2022-11-14T09:30:34;15.90;96.00
51007;DHT22;37034;47.886;-3.904;2022-11-14T09:33:02;15.90;95.80
51007;DHT22;37034;47.886;-3.904;2022-11-14T09:35:28;16.00;95.80
51007;DHT22;37034;47.886;-3.904;2022-11-14T09:38:06;15.90;95.60
51007;DHT22;37034;47.886;-3.904;2022-11-14T09:41:04;15.80;95.30
51007;DHT22;37034;47.886;-3.904;2022-11-14T09:46:31;15.90;95.10
51007;DHT22;37034;47.886;-3.904;2022-11-14T09:48:57;15.90;94.80
51007;DHT22;37034;47.886;-3.904;2022-11-14T09:51:27;15.90;94.90
51007;DHT22;37034;47.886;-3.904;2022-11-14T09:54:17;16.00;94.90
51007;DHT22;37034;47.886;-3.904;2022-11-14T09:56:45;15.90;94.50
51007;DHT22;37034;47.886;-3.904;2022-11-14T09:59:12;16.00;94.80
51007;DHT22;37034;47.886;-3.904;2022-11-14T10:12:43;16.50;94.40
51007;DHT22;37034;47.886;-3.904;2022-11-14T10:15:24;16.50;94.00
51007;DHT22;37034;47.886;-3.904;2022-11-14T10:18:05;16.40;94.10
51007;DHT22;37034;47.886;-3.904;2022-11-14T10:20:43;16.40;93.80
51007;DHT22;37034;47.886;-3.904;2022-11-14T10:23:25;16.40;94.00
51007;DHT22;37034;47.886;-3.904;2022-11-14T10:31:43;16.50;92.90
51007;DHT22;37034;47.886;-3.904;2022-11-14T10:35:06;16.50;93.30
51007;DHT22;37034;47.886;-3.904;2022-11-14T10:37:44;16.60;93.70
51007;DHT22;37034;47.886;-3.904;2022-11-14T10:42:54;16.70;93.10
51007;DHT22;37034;47.886;-3.904;2022-11-14T10:45:36;16.70;93.10
51007;DHT22;37034;47.886;-3.904;2022-11-14T10:48:11;16.80;93.20
51007;DHT22;37034;47.886;-3.904;2022-11-14T10:55:55;17.00;92.60
51007;DHT22;37034;47.886;-3.904;2022-11-14T10:58:21;17.00;91.80
51007;DHT22;37034;47.886;-3.904;2022-11-14T11:00:47;16.90;92.20
51007;DHT22;37034;47.886;-3.904;2022-11-14T11:03:13;16.80;91.20
51007;DHT22;37034;47.886;-3.904;2022-11-14T11:05:50;16.80;91.20
51007;DHT22;37034;47.886;-3.904;2022-11-14T11:08:22;16.70;91.80
51007;DHT22;37034;47.886;-3.904;2022-11-14T11:11:13;16.80;91.60
51007;DHT22;37034;47.886;-3.904;2022-11-14T11:13:56;16.90;90.70
51007;DHT22;37034;47.886;-3.904;2022-11-14T11:16:23;16.90;91.50
51007;DHT22;37034;47.886;-3.904;2022-11-14T11:18:50;17.00;91.70
51007;DHT22;37034;47.886;-3.904;2022-11-14T11:21:18;16.80;90.50
51007;DHT22;37034;47.886;-3.904;2022-11-14T11:23:55;16.80;91.30
51007;DHT22;37034;47.886;-3.904;2022-11-14T11:26:25;16.80;91.50
51007;DHT22;37034;47.886;-3.904;2022-11-14T11:31:57;17.10;90.80
51007;DHT22;37034;47.886;-3.904;2022-11-14T11:34:26;17.20;90.00
51007;DHT22;37034;47.886;-3.904;2022-11-14T11:39:48;17.20;89.50
51007;DHT22;37034;47.886;-3.904;2022-11-14T11:42:22;17.30;90.70
51007;DHT22;37034;47.886;-3.904;2022-11-14T11:44:54;17.40;90.30
51007;DHT22;37034;47.886;-3.904;2022-11-14T11:47:24;17.40;89.10
51007;DHT22;37034;47.886;-3.904;2022-11-14T11:49:51;17.40;90.00
51007;DHT22;37034;47.886;-3.904;2022-11-14T11:55:23;17.40;87.90
51007;DHT22;37034;47.886;-3.904;2022-11-14T11:58:00;17.30;88.30
51007;DHT22;37034;47.886;-3.904;2022-11-14T12:00:27;17.40;88.40
51007;DHT22;37034;47.886;-3.904;2022-11-14T12:02:53;17.30;89.60
51007;DHT22;37034;47.886;-3.904;2022-11-14T12:05:33;17.40;89.90
51007;DHT22;37034;47.886;-3.904;2022-11-14T12:08:46;17.50;90.00
51007;DHT22;37034;47.886;-3.904;2022-11-14T12:11:08;17.50;89.50
51007;DHT22;37034;47.886;-3.904;2022-11-14T12:25:06;17.40;89.50
51007;DHT22;37034;47.886;-3.904;2022-11-14T12:30:26;17.70;87.10
51007;DHT22;37034;47.886;-3.904;2022-11-14T12:32:57;17.80;87.50
51007;DHT22;37034;47.886;-3.904;2022-11-14T12:37:55;17.60;86.70
51007;DHT22;37034;47.886;-3.904;2022-11-14T12:42:51;17.60;84.80
51007;DHT22;37034;47.886;-3.904;2022-11-14T12:48:38;17.60;84.30
51007;DHT22;37034;47.886;-3.904;2022-11-14T12:53:53;17.60;84.60
51007;DHT22;37034;47.886;-3.904;2022-11-14T13:10:10;17.20;81.90
51007;DHT22;37034;47.886;-3.904;2022-11-14T13:12:38;17.10;81.50
51007;DHT22;37034;47.886;-3.904;2022-11-14T13:15:26;17.10;80.80
51007;DHT22;37034;47.886;-3.904;2022-11-14T13:18:21;17.10;80.00
51007;DHT22;37034;47.886;-3.904;2022-11-14T13:21:19;17.00;80.60
51007;DHT22;37034;47.886;-3.904;2022-11-14T13:24:03;17.10;81.70
51007;DHT22;37034;47.886;-3.904;2022-11-14T13:28:55;17.10;80.20
51007;DHT22;37034;47.886;-3.904;2022-11-14T13:31:43;17.10;79.90
51007;DHT22;37034;47.886;-3.904;2022-11-14T13:47:49;17.00;80.90
51007;DHT22;37034;47.886;-3.904;2022-11-14T13:50:31;17.00;81.80
51007;DHT22;37034;47.886;-3.904;2022-11-14T13:53:02;17.00;81.20
51007;DHT22;37034;47.886;-3.904;2022-11-14T14:21:00;17.20;81.80
51007;DHT22;37034;47.886;-3.904;2022-11-14T14:26:32;17.30;82.20
51007;DHT22;37034;47.886;-3.904;2022-11-14T14:29:24;17.30;81.40
51007;DHT22;37034;47.886;-3.904;2022-11-14T14:31:52;17.30;81.80
51007;DHT22;37034;47.886;-3.904;2022-11-14T14:34:27;17.20;81.20
51007;DHT22;37034;47.886;-3.904;2022-11-14T14:36:55;17.20;80.90
51007;DHT22;37034;47.886;-3.904;2022-11-14T14:39:23;17.20;80.80
51007;DHT22;37034;47.886;-3.904;2022-11-14T14:41:54;17.20;81.60
51007;DHT22;37034;47.886;-3.904;2022-11-14T14:44:36;17.20;81.40
51007;DHT22;37034;47.886;-3.904;2022-11-14T14:47:32;17.20;81.90
51007;DHT22;37034;47.886;-3.904;2022-11-14T14:50:01;17.10;80.90
51007;DHT22;37034;47.886;-3.904;2022-11-14T14:52:32;17.00;81.00
51007;DHT22;37034;47.886;-3.904;2022-11-14T14:55:16;17.00;81.60
51007;DHT22;37034;47.886;-3.904;2022-11-14T14:57:42;17.00;81.60
51007;DHT22;37034;47.886;-3.904;2022-11-14T15:00:24;17.10;82.10
51007;DHT22;37034;47.886;-3.904;2022-11-14T15:02:53;17.10;81.80
51007;DHT22;37034;47.886;-3.904;2022-11-14T15:05:27;17.00;82.00
51007;DHT22;37034;47.886;-3.904;2022-11-14T15:07:58;17.00;82.60
51007;DHT22;37034;47.886;-3.904;2022-11-14T15:10:27;17.10;83.10
51007;DHT22;37034;47.886;-3.904;2022-11-14T15:12:55;17.20;82.30
51007;DHT22;37034;47.886;-3.904;2022-11-14T15:15:21;17.20;82.00
51007;DHT22;37034;47.886;-3.904;2022-11-14T15:17:52;17.20;82.00
51007;DHT22;37034;47.886;-3.904;2022-11-14T15:20:25;17.20;82.10
51007;DHT22;37034;47.886;-3.904;2022-11-14T15:23:16;17.10;82.00
51007;DHT22;37034;47.886;-3.904;2022-11-14T15:25:42;17.10;82.40
51007;DHT22;37034;47.886;-3.904;2022-11-14T15:28:14;17.10;82.20
51007;DHT22;37034;47.886;-3.904;2022-11-14T15:30:41;17.00;81.30
51007;DHT22;37034;47.886;-3.904;2022-11-14T15:33:26;16.90;81.40
51007;DHT22;37034;47.886;-3.904;2022-11-14T15:36:13;16.90;81.60
51007;DHT22;37034;47.886;-3.904;2022-11-14T15:38:57;16.90;81.90
51007;DHT22;37034;47.886;-3.904;2022-11-14T15:41:24;16.90;81.90
51007;DHT22;37034;47.886;-3.904;2022-11-14T15:43:53;16.80;82.10
51007;DHT22;37034;47.886;-3.904;2022-11-14T15:48:56;16.70;82.50
51007;DHT22;37034;47.886;-3.904;2022-11-14T15:52:01;16.70;82.60
51007;DHT22;37034;47.886;-3.904;2022-11-14T15:54:29;16.80;83.00
51007;DHT22;37034;47.886;-3.904;2022-11-14T15:56:59;16.80;82.90
51007;DHT22;37034;47.886;-3.904;2022-11-14T15:59:27;16.80;83.00
51007;DHT22;37034;47.886;-3.904;2022-11-14T16:01:59;16.70;82.90
51007;DHT22;37034;47.886;-3.904;2022-11-14T16:04:33;16.70;82.20
51007;DHT22;37034;47.886;-3.904;2022-11-14T16:07:00;16.70;82.40
51007;DHT22;37034;47.886;-3.904;2022-11-14T16:09:26;16.60;82.60
51007;DHT22;37034;47.886;-3.904;2022-11-14T16:11:51;16.60;83.00
51007;DHT22;37034;47.886;-3.904;2022-11-14T16:14:17;16.60;83.20
51007;DHT22;37034;47.886;-3.904;2022-11-14T16:16:43;16.70;83.50
51007;DHT22;37034;47.886;-3.904;2022-11-14T16:19:12;16.70;83.60
51007;DHT22;37034;47.886;-3.904;2022-11-14T16:21:38;16.60;83.40
51007;DHT22;37034;47.886;-3.904;2022-11-14T16:24:05;16.50;83.40
51007;DHT22;37034;47.886;-3.904;2022-11-14T16:26:31;16.40;83.70
51007;DHT22;37034;47.886;-3.904;2022-11-14T16:28:56;16.50;84.10
51007;DHT22;37034;47.886;-3.904;2022-11-14T16:31:23;16.60;84.80
51007;DHT22;37034;47.886;-3.904;2022-11-14T16:33:48;16.50;83.60
51007;DHT22;37034;47.886;-3.904;2022-11-14T16:36:14;16.50;83.60
51007;DHT22;37034;47.886;-3.904;2022-11-14T16:38:40;16.50;84.20
51007;DHT22;37034;47.886;-3.904;2022-11-14T16:41:07;16.50;84.10
51007;DHT22;37034;47.886;-3.904;2022-11-14T16:43:33;16.50;84.20
51007;DHT22;37034;47.886;-3.904;2022-11-14T16:46:03;16.50;84.00
51007;DHT22;37034;47.886;-3.904;2022-11-14T16:48:29;16.50;84.20
51007;DHT22;37034;47.886;-3.904;2022-11-14T16:50:54;16.50;84.20
51007;DHT22;37034;47.886;-3.904;2022-11-14T16:53:20;16.50;84.20
51007;DHT22;37034;47.886;-3.904;2022-11-14T16:55:45;16.50;84.50
51007;DHT22;37034;47.886;-3.904;2022-11-14T16:58:11;16.50;84.90
51007;DHT22;37034;47.886;-3.904;2022-11-14T17:00:37;16.50;85.10
51007;DHT22;37034;47.886;-3.904;2022-11-14T17:03:06;16.50;85.50
51007;DHT22;37034;47.886;-3.904;2022-11-14T17:05:32;16.50;85.10
51007;DHT22;37034;47.886;-3.904;2022-11-14T17:07:57;16.50;85.00
51007;DHT22;37034;47.886;-3.904;2022-11-14T17:10:23;16.60;85.10
51007;DHT22;37034;47.886;-3.904;2022-11-14T17:12:49;16.50;85.30
51007;DHT22;37034;47.886;-3.904;2022-11-14T17:15:15;16.50;85.60
51007;DHT22;37034;47.886;-3.904;2022-11-14T17:17:40;16.50;85.80
51007;DHT22;37034;47.886;-3.904;2022-11-14T17:20:12;16.50;86.10
51007;DHT22;37034;47.886;-3.904;2022-11-14T17:22:37;16.40;86.00
51007;DHT22;37034;47.886;-3.904;2022-11-14T17:25:03;16.40;86.40
51007;DHT22;37034;47.886;-3.904;2022-11-14T17:27:29;16.50;86.50
51007;DHT22;37034;47.886;-3.904;2022-11-14T17:29:55;16.50;86.30
51007;DHT22;37034;47.886;-3.904;2022-11-14T17:32:20;16.60;86.80
51007;DHT22;37034;47.886;-3.904;2022-11-14T17:34:46;16.50;86.60